Time,TemperatureF,DewpointF,PressureIn,WindDirection,WindDirectionDegrees,WindSpeedMPH,WindSpeedGustMPH,Humidity,HourlyPrecipIn,Conditions,Clouds,dailyrainin,SoftwareType,DateUTC
2013-01-02 00:03:00,19.9,18.0,30.69,South,176,0.0,0.0,93,0.00,,,0.00,weatherlink.com 1.10,2013-01-02 08:03:00,
2013-01-02 00:18:00,20.0,19.0,30.68,SE,126,0.0,1.0,94,0.00,,,0.00,weatherlink.com 1.10,2013-01-02 08:18:00,
2013-01-02 00:33:00,19.8,18.0,30.69,SE,125,0.0,0.0,94,0.00,,,0.00,weatherlink.com 1.10,2013-01-02 08:33:00,
2013-01-02 00:48:00,19.4,18.0,30.68,WSW,238,0.0,1.0,93,0.00,,,0.00,weatherlink.com 1.10,2013-01-02 08:48:00,
2013-01-02 01:03:00,19.4,18.0,30.68,SE,128,0.0,1.0,95,0.00,,,0.00,weatherlink.com 1.10,2013-01-02 09:03:00,
2013-01-02 01:18:00,19.5,18.0,30.68,WSW,255,0.0,1.0,94,0.00,,,0.00,weatherlink.com 1.10,2013-01-02 09:18:00,
2013-01-02 01:33:00,19.1,18.0,30.68,WSW,255,0.0,0.0,94,0.00,,,0.00,weatherlink.com 1.10,2013-01-02 09:33:00,
2013-01-02 01:48:00,19.4,18.0,30.68,WSW,255,0.0,0.0,95,0.00,,,0.00,weatherlink.com 1.10,2013-01-02 09:48:00,
2013-01-02 02:03:00,19.8,18.0,30.68,WSW,245,0.0,1.0,94,0.00,,,0.00,weatherlink.com 1.10,2013-01-02 10:03:00,
2013-01-02 02:18:00,19.2,18.0,30.68,NNE,20,2.0,2.0,94,0.00,,,0.00,weatherlink.com 1.10,2013-01-02 10:18:00,
2013-01-02 02:34:00,19.4,18.0,30.68,SSE,150,1.0,1.0,94,0.00,,,0.00,weatherlink.com 1.10,2013-01-02 10:34:00,
2013-01-02 02:49:00,19.4,18.0,30.67,SE,141,0.0,1.0,94,0.00,,,0.00,weatherlink.com 1.10,2013-01-02 10:49:00,
2013-01-02 03:04:00,20.2,19.0,30.67,ENE,78,0.0,3.0,94,0.00,,,0.00,weatherlink.com 1.10,2013-01-02 11:04:00,
2013-01-02 03:19:00,20.4,19.0,30.67,East,80,0.0,3.0,94,0.00,,,0.00,weatherlink.com 1.10,2013-01-02 11:19:00,
2013-01-02 03:34:00,20.2,19.0,30.67,SSW,211,0.0,1.0,94,0.00,,,0.00,weatherlink.com 1.10,2013-01-02 11:34:00,
2013-01-02 03:49:00,20.1,19.0,30.67,SW,235,0.0,0.0,94,0.00,,,0.00,weatherlink.com 1.10,2013-01-02 11:49:00,
2013-01-02 04:04:00,20.1,19.0,30.66,SE,131,0.0,1.0,94,0.00,,,0.00,weatherlink.com 1.10,2013-01-02 12:04:00,
2013-01-02 04:19:00,19.9,19.0,30.67,SE,131,0.0,0.0,94,0.00,,,0.00,weatherlink.com 1.10,2013-01-02 12:19:00,
2013-01-02 04:34:00,19.8,18.0,30.67,SE,131,0.0,1.0,94,0.00,,,0.00,weatherlink.com 1.10,2013-01-02 12:34:00,
2013-01-02 04:49:00,19.9,19.0,30.67,East,94,1.0,1.0,94,0.00,,,0.00,weatherlink.com 1.10,2013-01-02 12:49:00,
2013-01-02 05:04:00,20.0,19.0,30.66,East,84,0.0,2.0,94,0.00,,,0.00,weatherlink.com 1.10,2013-01-02 13:04:00,
2013-01-02 05:19:00,20.1,19.0,30.66,East,84,1.0,1.0,95,0.00,,,0.00,weatherlink.com 1.10,2013-01-02 13:19:00,
2013-01-02 05:34:00,20.1,19.0,30.65,East,80,1.0,1.0,95,0.00,,,0.00,weatherlink.com 1.10,2013-01-02 13:34:00,
2013-01-02 05:49:00,20.0,19.0,30.65,ESE,108,0.0,1.0,95,0.00,,,0.00,weatherlink.com 1.10,2013-01-02 13:49:00,
2013-01-02 06:04:00,20.1,19.0,30.65,East,82,2.0,2.0,95,0.00,,,0.00,weatherlink.com 1.10,2013-01-02 14:04:00,
2013-01-02 06:19:00,20.2,19.0,30.66,ENE,71,2.0,3.0,95,0.00,,,0.00,weatherlink.com 1.10,2013-01-02 14:19:00,
2013-01-02 06:34:00,20.4,19.0,30.65,ENE,62,1.0,4.0,95,0.00,,,0.00,weatherlink.com 1.10,2013-01-02 14:34:00,
2013-01-02 06:49:00,20.3,19.0,30.65,ENE,72,1.0,3.0,95,0.00,,,0.00,weatherlink.com 1.10,2013-01-02 14:49:00,
2013-01-02 07:04:00,20.3,19.0,30.65,SE,128,1.0,2.0,95,0.00,,,0.00,weatherlink.com 1.10,2013-01-02 15:04:00,
2013-01-02 07:19:00,20.3,19.0,30.64,South,174,1.0,1.0,94,0.00,,,0.00,weatherlink.com 1.10,2013-01-02 15:19:00,
2013-01-02 07:34:00,20.4,19.0,30.64,ENE,62,3.0,3.0,93,0.00,,,0.00,weatherlink.com 1.10,2013-01-02 15:34:00,
2013-01-02 07:49:00,20.5,19.0,30.64,NE,47,0.0,2.0,93,0.00,,,0.00,weatherlink.com 1.10,2013-01-02 15:49:00,
2013-01-02 08:04:00,20.4,19.0,30.64,East,82,1.0,4.0,92,0.00,,,0.00,weatherlink.com 1.10,2013-01-02 16:04:00,
2013-01-02 08:19:00,20.6,18.0,30.64,ENE,68,0.0,3.0,91,0.00,,,0.00,weatherlink.com 1.10,2013-01-02 16:19:00,
2013-01-02 08:34:00,20.6,18.0,30.64,SE,124,0.0,4.0,91,0.00,,,0.00,weatherlink.com 1.10,2013-01-02 16:34:00,
2013-01-02 08:49:00,20.7,19.0,30.65,ESE,113,1.0,4.0,91,0.00,,,0.00,weatherlink.com 1.10,2013-01-02 16:49:00,
2013-01-02 09:04:00,20.9,19.0,30.65,SE,128,3.0,4.0,90,0.00,,,0.00,weatherlink.com 1.10,2013-01-02 17:04:00,
2013-01-02 09:19:00,21.3,19.0,30.65,SE,132,0.0,4.0,89,0.00,,,0.00,weatherlink.com 1.10,2013-01-02 17:19:00,
2013-01-02 09:34:00,21.4,18.0,30.65,ESE,118,0.0,3.0,88,0.00,,,0.00,weatherlink.com 1.10,2013-01-02 17:34:00,
2013-01-02 09:49:00,21.4,18.0,30.65,ENE,68,0.0,4.0,88,0.00,,,0.00,weatherlink.com 1.10,2013-01-02 17:49:00,
2013-01-02 10:04:00,21.5,19.0,30.65,ENE,77,6.0,6.0,89,0.00,,,0.00,weatherlink.com 1.10,2013-01-02 18:04:00,
2013-01-02 10:19:00,22.0,19.0,30.65,NE,53,1.0,4.0,88,0.00,,,0.00,weatherlink.com 1.10,2013-01-02 18:19:00,
2013-01-02 10:34:00,22.3,19.0,30.65,ENE,72,2.0,6.0,87,0.00,,,0.00,weatherlink.com 1.10,2013-01-02 18:34:00,
2013-01-02 10:49:00,22.5,19.0,30.64,SE,135,1.0,4.0,86,0.00,,,0.00,weatherlink.com 1.10,2013-01-02 18:49:00,
2013-01-02 11:04:00,22.8,19.0,30.64,ENE,63,0.0,5.0,86,0.00,,,0.00,weatherlink.com 1.10,2013-01-02 19:04:00,
2013-01-02 11:19:00,23.5,20.0,30.64,ESE,106,1.0,4.0,85,0.00,,,0.00,weatherlink.com 1.10,2013-01-02 19:19:00,
2013-01-02 11:34:00,23.8,19.0,30.63,East,91,1.0,5.0,82,0.00,,,0.00,weatherlink.com 1.10,2013-01-02 19:34:00,
2013-01-02 11:49:00,24.6,20.0,30.63,East,79,4.0,4.0,84,0.00,,,0.00,weatherlink.com 1.10,2013-01-02 19:49:00,
2013-01-02 12:05:00,24.1,19.0,30.62,ESE,120,3.0,8.0,82,0.00,,,0.00,weatherlink.com 1.10,2013-01-02 20:05:00,
2013-01-02 12:20:00,23.4,19.0,30.61,SE,125,4.0,7.0,82,0.00,,,0.00,weatherlink.com 1.10,2013-01-02 20:20:00,
2013-01-02 12:35:00,23.3,19.0,30.61,SE,131,4.0,7.0,82,0.00,,,0.00,weatherlink.com 1.10,2013-01-02 20:35:00,
2013-01-02 12:50:00,24.2,19.0,30.61,SSE,150,1.0,5.0,82,0.00,,,0.00,weatherlink.com 1.10,2013-01-02 20:50:00,
2013-01-02 13:05:00,24.2,19.0,30.61,SE,139,1.0,4.0,81,0.00,,,0.00,weatherlink.com 1.10,2013-01-02 21:05:00,
2013-01-02 13:20:00,24.6,19.0,30.61,SSE,148,1.0,3.0,80,0.00,,,0.00,weatherlink.com 1.10,2013-01-02 21:20:00,
2013-01-02 13:35:00,24.7,19.0,30.61,SE,128,1.0,2.0,79,0.00,,,0.00,weatherlink.com 1.10,2013-01-02 21:35:00,
2013-01-02 13:50:00,24.6,19.0,30.61,SE,134,0.0,1.0,79,0.00,,,0.00,weatherlink.com 1.10,2013-01-02 21:50:00,
2013-01-02 14:05:00,23.8,19.0,30.61,SE,125,3.0,3.0,80,0.00,,,0.00,weatherlink.com 1.10,2013-01-02 22:05:00,
2013-01-02 14:20:00,22.9,18.0,30.61,ESE,121,2.0,3.0,81,0.00,,,0.00,weatherlink.com 1.10,2013-01-02 22:20:00,
2013-01-02 14:35:00,22.1,17.0,30.61,SE,125,1.0,2.0,81,0.00,,,0.00,weatherlink.com 1.10,2013-01-02 22:35:00,
2013-01-02 14:50:00,21.8,17.0,30.61,SE,130,1.0,2.0,82,0.00,,,0.00,weatherlink.com 1.10,2013-01-02 22:50:00,
2013-01-02 15:05:00,21.7,17.0,30.61,ESE,120,0.0,1.0,82,0.00,,,0.00,weatherlink.com 1.10,2013-01-02 23:05:00,
2013-01-02 15:20:00,21.1,16.0,30.61,ESE,121,0.0,1.0,80,0.00,,,0.00,weatherlink.com 1.10,2013-01-02 23:20:00,
2013-01-02 15:50:00,17.4,13.0,30.61,NNE,21,0.0,0.0,84,0.00,,,0.00,weatherlink.com 1.10,2013-01-02 23:50:00,
2013-01-02 16:08:00,15.1,11.0,30.61,NNE,21,0.0,0.0,85,0.00,,,0.00,weatherlink.com 1.10,2013-01-03 00:08:00,
2013-01-02 16:20:00,12.2,9.0,30.61,NNE,21,0.0,0.0,87,0.00,,,0.00,weatherlink.com 1.10,2013-01-03 00:20:00,
2013-01-02 16:50:00,7.8,6.0,30.61,SW,225,0.0,1.0,91,0.00,,,0.00,weatherlink.com 1.10,2013-01-03 00:50:00,
2013-01-02 17:05:00,6.9,5.0,30.61,SW,226,0.0,0.0,91,0.00,,,0.00,weatherlink.com 1.10,2013-01-03 01:05:00,
2013-01-02 17:20:00,13.2,13.0,30.61,NE,52,1.0,2.0,97,0.00,,,0.00,weatherlink.com 1.10,2013-01-03 01:20:00,
2013-01-02 17:35:00,15.2,14.0,30.61,ENE,58,0.0,2.0,94,0.00,,,0.00,weatherlink.com 1.10,2013-01-03 01:35:00,
2013-01-02 17:50:00,14.4,13.0,30.61,NNE,32,2.0,2.0,94,0.00,,,0.00,weatherlink.com 1.10,2013-01-03 01:50:00,
2013-01-02 18:05:00,17.1,15.0,30.61,NE,45,1.0,3.0,92,0.00,,,0.00,weatherlink.com 1.10,2013-01-03 02:05:00,
2013-01-02 18:20:00,17.3,15.0,30.61,NE,51,0.0,5.0,90,0.00,,,0.00,weatherlink.com 1.10,2013-01-03 02:20:00,
2013-01-02 18:35:00,17.4,15.0,30.60,NE,51,1.0,2.0,90,0.00,,,0.00,weatherlink.com 1.10,2013-01-03 02:35:00,
2013-01-02 18:50:00,17.5,15.0,30.60,NE,50,3.0,3.0,90,0.00,,,0.00,weatherlink.com 1.10,2013-01-03 02:50:00,
2013-01-02 19:05:00,17.5,15.0,30.60,NE,54,4.0,4.0,90,0.00,,,0.00,weatherlink.com 1.10,2013-01-03 03:05:00,
2013-01-02 19:20:00,17.5,15.0,30.60,NE,47,3.0,3.0,90,0.00,,,0.00,weatherlink.com 1.10,2013-01-03 03:20:00,
2013-01-02 19:50:00,17.2,15.0,30.59,NE,49,1.0,4.0,90,0.00,,,0.00,weatherlink.com 1.10,2013-01-03 03:50:00,
2013-01-02 20:05:00,16.9,15.0,30.59,NE,36,2.0,5.0,90,0.00,,,0.00,weatherlink.com 1.10,2013-01-03 04:05:00,
2013-01-02 20:20:00,16.8,15.0,30.59,ENE,72,1.0,2.0,93,0.00,,,0.00,weatherlink.com 1.10,2013-01-03 04:20:00,
2013-01-02 20:35:00,16.9,15.0,30.59,NE,44,1.0,3.0,93,0.00,,,0.00,weatherlink.com 1.10,2013-01-03 04:35:00,
2013-01-02 20:50:00,17.1,16.0,30.59,ENE,60,2.0,3.0,94,0.00,,,0.00,weatherlink.com 1.10,2013-01-03 04:50:00,
2013-01-02 21:06:00,17.3,16.0,30.59,NE,56,0.0,3.0,93,0.00,,,0.00,weatherlink.com 1.10,2013-01-03 05:06:00,
2013-01-02 21:20:00,17.0,15.0,30.59,East,89,0.0,3.0,92,0.00,,,0.00,weatherlink.com 1.10,2013-01-03 05:20:00,
2013-01-02 21:36:00,16.6,15.0,30.59,East,88,3.0,5.0,93,0.00,,,0.00,weatherlink.com 1.10,2013-01-03 05:36:00,
2013-01-02 21:51:00,17.1,16.0,30.58,ENE,75,2.0,5.0,94,0.00,,,0.00,weatherlink.com 1.10,2013-01-03 05:51:00,
2013-01-02 22:06:00,17.4,16.0,30.58,ENE,74,2.0,7.0,94,0.00,,,0.00,weatherlink.com 1.10,2013-01-03 06:06:00,
2013-01-02 22:21:00,17.5,16.0,30.58,NE,34,3.0,4.0,94,0.00,,,0.00,weatherlink.com 1.10,2013-01-03 06:21:00,
2013-01-02 22:36:00,17.4,16.0,30.57,ENE,71,4.0,5.0,94,0.00,,,0.00,weatherlink.com 1.10,2013-01-03 06:36:00,
2013-01-02 22:51:00,17.4,16.0,30.57,NE,45,3.0,4.0,93,0.00,,,0.00,weatherlink.com 1.10,2013-01-03 06:51:00,
2013-01-02 23:06:00,16.3,15.0,30.57,ENE,70,1.0,5.0,93,0.00,,,0.00,weatherlink.com 1.10,2013-01-03 07:06:00,
2013-01-02 23:21:00,17.2,16.0,30.57,ESE,108,3.0,4.0,93,0.00,,,0.00,weatherlink.com 1.10,2013-01-03 07:21:00,
2013-01-02 23:36:00,17.2,15.0,30.56,ENE,58,1.0,6.0,91,0.00,,,0.00,weatherlink.com 1.10,2013-01-03 07:36:00,
2013-01-02 23:51:00,17.1,15.0,30.56,ENE,60,3.0,6.0,91,0.00,,,0.00,weatherlink.com 1.10,2013-01-03 07:51:00,